createdAt,value
2019-02-10T00:00:47.197Z,17.97
2019-02-10T00:03:13.937Z,22.20
2019-02-10T00:05:40.787Z,23.93
2019-02-10T00:08:07.819Z,20.33
2019-02-10T00:10:34.967Z,21.90
2019-02-10T00:13:01.714Z,18.40
2019-02-10T00:15:28.554Z,24.53
2019-02-10T00:17:55.397Z,16.67
2019-02-10T00:20:22.236Z,19.67
2019-02-10T00:22:49.002Z,15.90
2019-02-10T00:25:15.724Z,20.50
2019-02-10T00:27:42.618Z,20.37
2019-02-10T00:30:09.789Z,20.73
2019-02-10T00:32:36.597Z,20.23
2019-02-10T00:35:03.481Z,20.03
2019-02-10T00:37:30.125Z,22.03
2019-02-10T00:39:56.820Z,26.27
2019-02-10T00:42:23.609Z,20.47
2019-02-10T00:44:50.336Z,20.53
2019-02-10T00:47:16.976Z,17.37
2019-02-10T00:49:43.735Z,18.93
2019-02-10T00:52:10.461Z,23.27
2019-02-10T00:54:37.209Z,19.73
2019-02-10T00:57:04.096Z,19.87
2019-02-10T00:59:30.872Z,24.00
2019-02-10T01:01:59.138Z,19.63
2019-02-10T01:04:27.637Z,25.23
2019-02-10T01:06:56.056Z,21.27
2019-02-10T01:09:22.937Z,24.47
2019-02-10T01:11:49.803Z,34.47
2019-02-10T01:14:16.501Z,22.53
2019-02-10T01:16:43.270Z,24.33
2019-02-10T01:19:10.306Z,27.17
2019-02-10T01:21:37.675Z,27.10
2019-02-10T01:24:04.394Z,28.00
2019-02-10T01:26:31.158Z,32.00
2019-02-10T01:28:58.199Z,25.00
2019-02-10T01:31:24.832Z,25.27
2019-02-10T01:33:51.608Z,26.27
2019-02-10T01:36:18.730Z,25.87
2019-02-10T01:38:45.463Z,25.50
2019-02-10T01:41:12.164Z,28.63
2019-02-10T01:43:38.939Z,41.27
2019-02-10T01:46:05.678Z,32.13
2019-02-10T01:48:32.660Z,32.60
2019-02-10T01:50:59.577Z,32.97
2019-02-10T01:53:26.314Z,32.53
2019-02-10T01:55:53.048Z,35.83
2019-02-10T01:58:20.717Z,31.60
2019-02-10T02:00:48.039Z,35.47
2019-02-10T02:03:14.797Z,31.87
2019-02-10T02:05:41.540Z,35.90
2019-02-10T02:08:08.277Z,34.77
2019-02-10T02:10:35.733Z,32.83
2019-02-10T02:13:02.484Z,32.27
2019-02-10T02:15:29.223Z,33.07
2019-02-10T02:17:56.675Z,35.27
2019-02-10T02:20:24.021Z,37.97
2019-02-10T02:22:51.183Z,38.57
2019-02-10T02:25:19.048Z,36.43
2019-02-10T02:27:46.105Z,37.03
2019-02-10T02:30:13.292Z,34.90
2019-02-10T02:32:40.383Z,40.20
2019-02-10T02:35:07.120Z,31.73
2019-02-10T02:37:34.631Z,31.53
2019-02-10T02:40:02.142Z,35.17
2019-02-10T02:42:29.078Z,33.83
2019-02-10T02:44:55.828Z,33.07
2019-02-10T02:47:22.669Z,34.90
2019-02-10T02:49:49.397Z,33.57
2019-02-10T02:52:16.037Z,38.40
2019-02-10T02:54:43.541Z,30.23
2019-02-10T02:57:10.336Z,37.17
2019-02-10T02:59:37.486Z,35.67
2019-02-10T03:02:04.947Z,37.43
2019-02-10T03:04:31.891Z,33.20
2019-02-10T03:06:58.626Z,37.07
2019-02-10T03:09:25.466Z,47.03
2019-02-10T03:11:52.099Z,39.17
2019-02-10T03:14:19.238Z,39.23
2019-02-10T03:16:47.486Z,32.93
2019-02-10T03:19:14.287Z,37.60
2019-02-10T03:21:40.966Z,39.37
2019-02-10T03:24:07.747Z,35.90
2019-02-10T03:26:34.497Z,40.03
2019-02-10T03:29:01.629Z,38.83
2019-02-10T03:31:28.485Z,36.03
2019-02-10T03:33:55.212Z,40.47
2019-02-10T03:36:21.960Z,39.17
2019-02-10T03:38:48.803Z,37.87
2019-02-10T03:41:15.540Z,41.47
2019-02-10T03:43:42.281Z,45.70
2019-02-10T03:46:09.391Z,42.47
2019-02-10T03:48:36.068Z,40.73
2019-02-10T03:51:03.423Z,39.93
2019-02-10T03:53:30.419Z,46.30
2019-02-10T03:55:57.195Z,39.13
2019-02-10T03:58:23.847Z,40.47
2019-02-10T04:00:50.993Z,43.37
2019-02-10T04:03:17.925Z,40.90
2019-02-10T04:05:44.676Z,45.53
2019-02-10T04:08:11.403Z,39.87
2019-02-10T04:10:38.153Z,43.80
2019-02-10T04:13:05.192Z,69.90
2019-02-10T04:15:31.940Z,40.60
2019-02-10T04:17:58.696Z,41.90
2019-02-10T04:20:25.779Z,43.67
2019-02-10T04:22:52.571Z,38.90
2019-02-10T04:25:19.407Z,45.10
2019-02-10T04:27:46.960Z,41.67
2019-02-10T04:30:14.002Z,41.60
2019-02-10T04:32:40.749Z,42.23
2019-02-10T04:35:07.443Z,47.23
2019-02-10T04:37:34.526Z,39.10
2019-02-10T04:40:01.280Z,44.50
2019-02-10T04:42:27.972Z,44.17
2019-02-10T04:44:55.066Z,38.57
2019-02-10T04:47:22.869Z,40.13
2019-02-10T04:49:49.795Z,70.87
2019-02-10T04:52:16.872Z,40.60
2019-02-10T04:54:43.661Z,43.50
2019-02-10T04:57:10.387Z,37.03
2019-02-10T04:59:37.128Z,39.37
2019-02-10T05:02:03.900Z,42.40
2019-02-10T05:04:30.723Z,42.40
2019-02-10T05:06:57.455Z,34.07
2019-02-10T05:09:24.421Z,43.77
2019-02-10T05:11:51.652Z,42.87
2019-02-10T05:14:18.387Z,43.57
2019-02-10T05:16:45.438Z,36.97
2019-02-10T05:19:12.182Z,44.00
2019-02-10T05:21:38.913Z,44.37
2019-02-10T05:24:06.261Z,42.10
2019-02-10T05:26:33.511Z,41.30
2019-02-10T05:29:00.372Z,33.53
2019-02-10T05:31:27.218Z,37.13
2019-02-10T05:33:54.357Z,37.33
2019-02-10T05:36:21.546Z,35.03
2019-02-10T05:38:48.395Z,41.97
2019-02-10T05:41:15.611Z,45.93
2019-02-10T05:43:42.906Z,40.00
2019-02-10T05:46:09.690Z,41.47
2019-02-10T05:48:36.395Z,43.70
2019-02-10T05:51:03.812Z,35.47
2019-02-10T05:53:30.527Z,43.10
2019-02-10T05:55:57.253Z,38.87
2019-02-10T05:58:24.317Z,44.53
2019-02-10T06:00:51.444Z,39.40
2019-02-10T06:03:18.190Z,43.60
2019-02-10T06:05:45.606Z,39.60
2019-02-10T06:08:13.775Z,41.40
2019-02-10T06:10:42.192Z,43.53
2019-02-10T06:13:09.357Z,35.77
2019-02-10T06:15:38.334Z,32.60
2019-02-10T06:18:05.391Z,37.63
2019-02-10T06:20:32.117Z,34.77
2019-02-10T06:22:58.858Z,33.67
2019-02-10T06:25:25.615Z,38.47
2019-02-10T06:27:52.448Z,33.60
2019-02-10T06:30:19.385Z,40.00
2019-02-10T06:32:46.124Z,37.83
2019-02-10T06:35:12.978Z,40.80
2019-02-10T06:37:39.673Z,36.57
2019-02-10T06:40:06.489Z,35.60
2019-02-10T06:42:33.292Z,35.03
2019-02-10T06:45:00.255Z,37.10
2019-02-10T06:47:27.069Z,39.40
2019-02-10T06:49:53.818Z,40.13
2019-02-10T06:52:22.968Z,46.37
2019-02-10T06:54:49.645Z,36.37
2019-02-10T06:57:16.383Z,41.33
2019-02-10T06:59:43.489Z,37.67
2019-02-10T07:02:10.274Z,37.73
2019-02-10T07:04:37.020Z,38.83
2019-02-10T07:07:04.629Z,43.30
2019-02-10T07:09:31.920Z,42.93
2019-02-10T07:11:58.669Z,38.60
2019-02-10T07:14:25.399Z,41.87
2019-02-10T07:16:52.504Z,35.80
2019-02-10T07:19:19.196Z,38.60
2019-02-10T07:21:45.927Z,37.17
2019-02-10T07:24:13.238Z,37.70
2019-02-10T07:26:40.025Z,37.00
2019-02-10T07:29:06.724Z,37.97
2019-02-10T07:31:34.136Z,36.97
2019-02-10T07:34:01.288Z,43.07
2019-02-10T07:36:28.010Z,44.10
2019-02-10T07:38:54.850Z,37.43
2019-02-10T07:41:21.793Z,36.13
2019-02-10T07:43:49.202Z,37.87
2019-02-10T07:46:16.084Z,36.20
2019-02-10T07:48:43.281Z,41.70
2019-02-10T07:51:10.070Z,37.07
2019-02-10T07:53:36.816Z,39.27
2019-02-10T07:56:03.510Z,41.07
2019-02-10T07:58:30.947Z,40.30
2019-02-10T08:00:57.642Z,37.47
2019-02-10T08:03:24.698Z,36.57
2019-02-10T08:05:52.053Z,34.67
2019-02-10T08:08:19.195Z,39.03
2019-02-10T08:10:46.134Z,45.07
2019-02-10T08:13:13.295Z,34.90
2019-02-10T08:15:40.346Z,39.30
2019-02-10T08:18:07.078Z,39.30
2019-02-10T08:20:33.922Z,31.10
2019-02-10T08:23:00.617Z,33.93
2019-02-10T08:25:27.286Z,34.07
2019-02-10T08:27:53.982Z,32.07
2019-02-10T08:30:20.775Z,33.07
2019-02-10T08:32:47.507Z,30.50
2019-02-10T08:35:14.284Z,26.37
2019-02-10T08:37:40.989Z,54.50
2019-02-10T08:40:07.721Z,29.10
2019-02-10T08:42:34.362Z,27.57
2019-02-10T08:45:01.099Z,28.03
2019-02-10T08:47:33.627Z,25.17
2019-02-10T08:49:56.228Z,24.03
2019-02-10T08:52:23.017Z,24.03
2019-02-10T08:54:49.901Z,26.47
2019-02-10T08:57:16.647Z,27.40
2019-02-10T08:59:43.420Z,26.63
2019-02-10T09:02:10.108Z,23.27
2019-02-10T09:04:37.855Z,25.30
2019-02-10T09:07:04.621Z,23.18
2019-02-10T09:09:31.360Z,25.40
2019-02-10T09:11:58.100Z,24.43
2019-02-10T09:14:24.852Z,22.60
2019-02-10T09:16:51.698Z,32.98
2019-02-10T09:19:18.535Z,30.15
2019-02-10T09:21:45.259Z,20.55
2019-02-10T09:24:11.999Z,21.42
2019-02-10T09:26:38.777Z,20.85
2019-02-10T09:29:07.026Z,19.17
2019-02-10T09:31:34.327Z,24.72
2019-02-10T09:34:01.115Z,23.87
2019-02-10T09:36:27.845Z,40.65
2019-02-10T09:38:54.498Z,19.87
2019-02-10T09:41:21.631Z,19.60
2019-02-10T09:43:48.585Z,17.07
2019-02-10T09:46:15.324Z,19.05
2019-02-10T09:48:42.193Z,17.10
2019-02-10T09:51:08.910Z,17.67
2019-02-10T09:53:35.736Z,14.70
2019-02-10T09:56:02.385Z,18.10
2019-02-10T09:58:29.224Z,15.45
2019-02-10T10:00:55.955Z,16.52
2019-02-10T10:03:22.680Z,14.07
2019-02-10T10:05:49.777Z,15.63
2019-02-10T10:08:16.495Z,15.35
2019-02-10T10:10:43.221Z,15.10
2019-02-10T10:13:09.971Z,13.43
2019-02-10T10:15:36.818Z,15.72
2019-02-10T10:18:03.647Z,14.90
2019-02-10T10:20:30.798Z,10.68
2019-02-10T10:22:57.828Z,12.43
2019-02-10T10:25:24.503Z,11.18
2019-02-10T10:27:51.325Z,12.23
2019-02-10T10:30:18.167Z,14.33
2019-02-10T10:32:44.895Z,8.53
2019-02-10T10:35:11.539Z,8.48
2019-02-10T10:37:38.387Z,10.50
2019-02-10T10:40:05.234Z,10.30
2019-02-10T10:42:32.167Z,9.05
2019-02-10T10:44:59.007Z,9.85
2019-02-10T10:47:25.752Z,10.00
2019-02-10T10:49:52.609Z,8.40
2019-02-10T10:52:19.477Z,14.75
2019-02-10T10:54:46.274Z,9.00
2019-02-10T10:57:13.011Z,7.33
2019-02-10T10:59:39.751Z,6.70
2019-02-10T11:02:06.595Z,6.40
2019-02-10T11:04:33.282Z,7.42
2019-02-10T11:06:59.999Z,6.58
2019-02-10T11:09:26.720Z,7.92
2019-02-10T11:11:53.440Z,7.00
2019-02-10T11:14:20.267Z,8.08
2019-02-10T11:16:46.956Z,8.53
2019-02-10T11:19:13.669Z,8.38
2019-02-10T11:21:40.364Z,7.28
2019-02-10T11:24:06.988Z,8.53
2019-02-10T11:26:33.690Z,10.15
2019-02-10T11:29:00.341Z,8.45
2019-02-10T11:31:27.163Z,8.75
2019-02-10T11:33:54.005Z,8.48
2019-02-10T11:36:20.741Z,10.32
2019-02-10T11:38:47.585Z,9.38
2019-02-10T11:41:14.316Z,9.00
2019-02-10T11:43:41.167Z,9.10
2019-02-10T11:46:07.856Z,10.18
2019-02-10T11:48:34.644Z,10.05
2019-02-10T11:51:01.370Z,9.88
2019-02-10T11:53:28.107Z,8.98
2019-02-10T11:55:54.934Z,9.68
2019-02-10T11:58:21.705Z,9.90
2019-02-10T12:00:48.548Z,9.05
2019-02-10T12:03:15.274Z,8.77
2019-02-10T12:05:42.010Z,8.20
2019-02-10T12:08:08.873Z,9.00
2019-02-10T12:10:35.597Z,8.73
2019-02-10T12:13:02.433Z,9.33
2019-02-10T12:15:29.174Z,10.07
2019-02-10T12:17:55.912Z,12.80
2019-02-10T12:20:22.722Z,10.90
2019-02-10T12:22:50.445Z,9.10
2019-02-10T12:25:17.264Z,9.23
2019-02-10T12:27:43.995Z,8.50
2019-02-10T12:30:10.647Z,8.27
2019-02-10T12:32:37.483Z,8.33
2019-02-10T12:35:04.333Z,9.70
2019-02-10T12:37:32.504Z,9.03
2019-02-10T12:40:00.066Z,10.33
2019-02-10T12:42:27.206Z,11.17
2019-02-10T12:44:54.345Z,8.67
2019-02-10T12:47:21.098Z,8.63
2019-02-10T12:49:47.824Z,8.53
2019-02-10T12:52:14.461Z,10.40
2019-02-10T12:54:41.187Z,12.80
2019-02-10T12:57:07.959Z,9.77
2019-02-10T12:59:34.691Z,15.73
2019-02-10T13:02:01.415Z,10.40
2019-02-10T13:04:28.112Z,10.27
2019-02-10T13:06:54.726Z,9.57
2019-02-10T13:09:21.400Z,9.03
2019-02-10T13:11:48.102Z,9.37
2019-02-10T13:14:14.816Z,9.17
2019-02-10T13:16:41.660Z,10.13
2019-02-10T13:19:08.390Z,10.33
2019-02-10T13:21:35.153Z,11.97
2019-02-10T13:24:01.865Z,9.77
2019-02-10T13:26:28.503Z,9.40
2019-02-10T13:28:55.245Z,10.40
2019-02-10T13:31:22.094Z,10.03
2019-02-10T13:33:48.885Z,9.67
2019-02-10T13:36:15.681Z,9.43
2019-02-10T13:38:42.404Z,9.17
2019-02-10T13:41:09.145Z,10.20
2019-02-10T13:43:35.781Z,8.77
2019-02-10T13:46:02.620Z,10.97
2019-02-10T13:48:29.373Z,9.43
2019-02-10T13:50:56.110Z,8.60
2019-02-10T13:53:23.064Z,10.00
2019-02-10T13:55:49.767Z,10.67
2019-02-10T13:58:16.455Z,9.07
2019-02-10T14:00:43.161Z,10.43
2019-02-10T14:03:09.895Z,9.77
2019-02-10T14:05:36.624Z,9.03
2019-02-10T14:08:03.310Z,10.23
2019-02-10T14:10:31.003Z,9.60
2019-02-10T14:12:57.728Z,9.23
2019-02-10T14:15:24.443Z,10.03
2019-02-10T14:17:51.145Z,9.73
2019-02-10T14:20:17.779Z,9.73
2019-02-10T14:22:44.570Z,10.27
2019-02-10T14:25:11.296Z,10.30
2019-02-10T14:27:38.022Z,11.17
2019-02-10T14:30:04.716Z,9.77
2019-02-10T14:32:31.407Z,10.17
2019-02-10T14:34:58.124Z,10.17
2019-02-10T14:37:24.843Z,10.03
2019-02-10T14:39:51.549Z,9.57
2019-02-10T14:42:18.274Z,9.97
2019-02-10T14:44:44.977Z,9.20
2019-02-10T14:47:11.834Z,9.57
2019-02-10T14:49:38.569Z,9.50
2019-02-10T14:52:05.298Z,10.77
2019-02-10T14:54:32.049Z,10.97
2019-02-10T14:56:58.788Z,12.43
2019-02-10T14:59:25.565Z,12.20
2019-02-10T15:01:52.286Z,12.30
2019-02-10T15:04:18.982Z,11.23
2019-02-10T15:06:45.711Z,10.87
2019-02-10T15:09:12.416Z,10.97
2019-02-10T15:11:39.171Z,10.77
2019-02-10T15:14:05.799Z,14.03
2019-02-10T15:16:34.117Z,12.37
2019-02-10T15:19:00.976Z,12.33
2019-02-10T15:21:27.694Z,11.97
2019-02-10T15:23:54.463Z,11.93
2019-02-10T15:26:21.198Z,13.17
2019-02-10T15:28:47.926Z,10.87
2019-02-10T15:31:14.619Z,12.43
2019-02-10T15:33:41.358Z,12.43
2019-02-10T15:36:08.204Z,12.17
2019-02-10T15:38:34.952Z,14.67
2019-02-10T15:41:01.671Z,13.00
2019-02-10T15:43:28.372Z,15.77
2019-02-10T15:45:55.112Z,12.47
2019-02-10T15:48:21.895Z,14.07
2019-02-10T15:50:48.592Z,14.13
2019-02-10T15:53:15.283Z,14.17
2019-02-10T15:55:41.984Z,15.77
2019-02-10T15:58:08.602Z,16.60
2019-02-10T16:00:35.398Z,17.53
2019-02-10T16:03:02.133Z,13.93
2019-02-10T16:05:28.820Z,16.07
2019-02-10T16:07:55.481Z,14.33
2019-02-10T16:10:22.212Z,17.13
2019-02-10T16:12:49.062Z,14.37
2019-02-10T16:15:15.767Z,14.67
2019-02-10T16:17:42.398Z,12.17
2019-02-10T16:20:09.056Z,15.33
2019-02-10T16:22:35.776Z,13.57
2019-02-10T16:25:02.516Z,12.50
2019-02-10T16:27:29.163Z,12.03
2019-02-10T16:29:55.858Z,14.20
2019-02-10T16:32:22.484Z,12.97
2019-02-10T16:34:49.103Z,12.17
2019-02-10T16:37:15.914Z,13.83
2019-02-10T16:39:42.636Z,12.77
2019-02-10T16:42:09.368Z,11.33
2019-02-10T16:44:36.068Z,13.33
2019-02-10T16:47:02.804Z,11.87
2019-02-10T16:49:29.556Z,13.77
2019-02-10T16:51:56.280Z,11.77
2019-02-10T16:54:23.000Z,14.93
2019-02-10T16:56:49.706Z,13.23
2019-02-10T16:59:16.363Z,14.50
2019-02-10T17:01:43.128Z,13.77
2019-02-10T17:04:09.811Z,16.47
2019-02-10T17:06:36.448Z,14.50
2019-02-10T17:09:03.215Z,13.00
2019-02-10T17:11:29.947Z,13.70
2019-02-10T17:13:56.729Z,16.17
2019-02-10T17:16:23.466Z,14.23
2019-02-10T17:18:50.178Z,19.73
2019-02-10T17:21:16.930Z,16.83
2019-02-10T17:23:43.613Z,15.57
2019-02-10T17:26:10.408Z,15.23
2019-02-10T17:28:37.122Z,17.70
2019-02-10T17:31:03.743Z,12.87
2019-02-10T17:33:30.420Z,14.43
2019-02-10T17:35:57.104Z,15.30
2019-02-10T17:38:23.951Z,15.33
2019-02-10T17:40:50.740Z,15.73
2019-02-10T17:43:17.545Z,17.70
2019-02-10T17:45:44.307Z,17.17
2019-02-10T17:48:11.044Z,18.83
2019-02-10T17:50:37.830Z,17.00
2019-02-10T17:53:04.522Z,16.70
2019-02-10T17:55:31.259Z,16.67
2019-02-10T17:57:57.951Z,14.20
2019-02-10T18:00:24.576Z,13.97
2019-02-10T18:02:51.370Z,14.77
2019-02-10T18:05:18.062Z,15.97
2019-02-10T18:07:44.801Z,13.47
2019-02-10T18:10:11.494Z,13.30
2019-02-10T18:12:40.268Z,12.27
2019-02-10T18:15:08.082Z,14.83
2019-02-10T18:17:36.119Z,13.33
2019-02-10T18:20:08.281Z,14.63
2019-02-10T18:22:36.632Z,12.53
2019-02-10T18:25:05.009Z,16.93
2019-02-10T18:27:32.362Z,20.00
2019-02-10T18:32:47.619Z,16.10
2019-02-10T18:35:14.324Z,16.90
2019-02-10T18:37:42.757Z,16.60
2019-02-10T18:40:09.440Z,18.00
2019-02-10T18:42:36.284Z,16.27
2019-02-10T18:45:03.528Z,20.83
2019-02-10T18:47:30.267Z,15.30
2019-02-10T18:49:57.120Z,14.73
2019-02-10T18:52:23.851Z,15.00
2019-02-10T18:54:52.330Z,15.53
2019-02-10T18:57:18.986Z,16.83
2019-02-10T18:59:45.805Z,14.17
2019-02-10T19:02:12.537Z,16.50
2019-02-10T19:04:39.181Z,16.27
2019-02-10T19:07:05.923Z,14.97
2019-02-10T19:09:33.248Z,15.83
2019-02-10T19:12:00.004Z,13.93
2019-02-10T19:14:26.754Z,14.87
2019-02-10T19:16:53.594Z,13.87
2019-02-10T19:19:20.436Z,14.63
2019-02-10T19:21:47.280Z,14.67
2019-02-10T19:24:13.990Z,13.70
2019-02-10T19:26:40.726Z,15.93
2019-02-10T19:29:07.435Z,14.90
2019-02-10T19:31:34.131Z,14.13
2019-02-10T19:34:00.902Z,14.73
2019-02-10T19:36:27.626Z,15.40
2019-02-10T19:38:54.356Z,15.33
2019-02-10T19:41:21.082Z,14.03
2019-02-10T19:43:47.824Z,14.47
2019-02-10T19:46:14.623Z,16.00
2019-02-10T19:48:41.727Z,14.80
2019-02-10T19:51:08.456Z,15.03
2019-02-10T19:53:35.196Z,15.47
2019-02-10T19:56:01.954Z,15.13
2019-02-10T19:58:29.180Z,15.47
2019-02-10T20:00:55.919Z,16.30
2019-02-10T20:03:22.658Z,16.87
2019-02-10T20:05:49.817Z,16.17
2019-02-10T20:08:16.557Z,16.03
2019-02-10T20:10:43.705Z,16.40
2019-02-10T20:13:10.441Z,18.50
2019-02-10T20:15:37.275Z,14.00
2019-02-10T20:18:05.863Z,18.03
2019-02-10T20:20:32.849Z,17.63
2019-02-10T20:22:59.691Z,15.67
2019-02-10T20:25:26.527Z,15.87
2019-02-10T20:27:53.300Z,15.97
2019-02-10T20:30:20.024Z,17.30
2019-02-10T20:32:49.056Z,18.53
2019-02-10T20:35:18.027Z,14.63
2019-02-10T20:37:46.662Z,15.13
2019-02-10T20:40:15.064Z,15.40
2019-02-10T20:42:44.051Z,15.63
2019-02-10T20:45:11.036Z,18.63
2019-02-10T20:47:38.049Z,17.23
2019-02-10T20:50:05.055Z,19.13
2019-02-10T20:52:31.842Z,18.43
2019-02-10T20:54:58.574Z,19.13
2019-02-10T20:57:25.300Z,16.93
2019-02-10T20:59:52.078Z,16.77
2019-02-10T21:02:18.772Z,17.37
2019-02-10T21:04:45.576Z,17.33
2019-02-10T21:07:12.215Z,21.23
2019-02-10T21:09:38.911Z,18.87
2019-02-10T21:12:05.783Z,18.57
2019-02-10T21:14:32.444Z,15.70
2019-02-10T21:16:59.138Z,16.87
2019-02-10T21:19:25.910Z,15.70
2019-02-10T21:21:52.658Z,18.00
2019-02-10T21:24:19.493Z,17.80
2019-02-10T21:26:46.233Z,16.40
2019-02-10T21:29:12.982Z,16.90
2019-02-10T21:31:39.826Z,18.67
2019-02-10T21:34:06.562Z,17.00
2019-02-10T21:36:33.401Z,18.03
2019-02-10T21:39:00.680Z,15.47
2019-02-10T21:41:27.811Z,18.07
2019-02-10T21:43:54.530Z,17.13
2019-02-10T21:46:21.297Z,16.50
2019-02-10T21:48:48.380Z,20.90
2019-02-10T21:51:15.160Z,23.93
2019-02-10T21:53:41.793Z,16.70
2019-02-10T21:56:08.523Z,20.17
2019-02-10T21:58:35.217Z,15.93
2019-02-10T22:01:01.986Z,16.03
2019-02-10T22:03:28.677Z,20.03
2019-02-10T22:05:55.403Z,17.57
2019-02-10T22:08:22.150Z,14.97
2019-02-10T22:10:48.832Z,15.63
2019-02-10T22:13:15.535Z,17.57
2019-02-10T22:15:42.255Z,15.50
2019-02-10T22:18:08.951Z,17.27
2019-02-10T22:20:35.693Z,13.03
2019-02-10T22:23:02.433Z,16.57
2019-02-10T22:25:29.267Z,16.13
2019-02-10T22:27:55.964Z,17.00
2019-02-10T22:30:22.613Z,16.30
2019-02-10T22:32:49.359Z,15.00
2019-02-10T22:35:16.247Z,14.40
2019-02-10T22:37:43.026Z,14.60
2019-02-10T22:40:09.723Z,15.47
2019-02-10T22:42:45.155Z,15.63
2019-02-10T22:45:05.312Z,13.60
2019-02-10T22:47:32.020Z,13.70
2019-02-10T22:49:59.183Z,14.73
2019-02-10T22:52:25.878Z,13.30
2019-02-10T22:54:52.494Z,12.70
2019-02-10T22:57:19.193Z,15.07
2019-02-10T22:59:45.840Z,14.07
2019-02-10T23:02:12.766Z,15.87
2019-02-10T23:04:39.496Z,14.47
2019-02-10T23:07:06.225Z,14.93
2019-02-10T23:09:32.978Z,15.07
2019-02-10T23:11:59.712Z,14.83
2019-02-10T23:14:26.557Z,17.50
2019-02-10T23:16:53.286Z,14.67
2019-02-10T23:19:20.064Z,15.03
2019-02-10T23:21:46.779Z,14.03
2019-02-10T23:24:13.502Z,13.93
2019-02-10T23:26:40.242Z,11.17
2019-02-10T23:29:07.084Z,18.80
2019-02-10T23:31:33.849Z,14.50
2019-02-10T23:34:00.579Z,14.27
2019-02-10T23:36:27.317Z,12.70
2019-02-10T23:38:54.482Z,14.43
2019-02-10T23:41:21.198Z,15.20
2019-02-10T23:43:47.937Z,14.13
2019-02-10T23:46:14.673Z,15.17
2019-02-10T23:48:41.419Z,14.03
2019-02-10T23:51:08.720Z,12.83
2019-02-10T23:53:35.501Z,14.20
2019-02-10T23:56:02.249Z,14.13
2019-02-10T23:58:28.991Z,14.77
